createdAt,value
2023-03-31T00:00:47.136Z,99.99
2023-03-31T00:01:47.088Z,99.99
2023-03-31T00:02:47.102Z,99.79
2023-03-31T00:03:47.098Z,99.79
2023-03-31T00:04:47.000Z,99.18
2023-03-31T00:05:46.935Z,99.27
2023-03-31T00:06:46.896Z,99.79
2023-03-31T00:07:46.854Z,99.07
2023-03-31T00:08:46.792Z,99.52
2023-03-31T00:09:46.764Z,99.18
2023-03-31T00:10:46.736Z,99.58
2023-03-31T00:11:46.694Z,99.27
2023-03-31T00:12:46.633Z,99.38
2023-03-31T00:13:46.598Z,98.56
2023-03-31T00:14:46.569Z,98.56
2023-03-31T00:15:46.517Z,98.46
2023-03-31T00:16:46.538Z,97.80
2023-03-31T00:17:46.498Z,97.80
2023-03-31T00:18:46.433Z,97.90
2023-03-31T00:19:46.352Z,97.70
2023-03-31T00:20:46.333Z,97.80
2023-03-31T00:21:46.278Z,97.90
2023-03-31T00:22:46.242Z,97.70
2023-03-31T00:23:46.207Z,97.90
2023-03-31T00:24:46.191Z,97.19
2023-03-31T00:25:46.117Z,97.60
2023-03-31T00:26:46.077Z,97.19
2023-03-31T00:27:46.034Z,97.19
2023-03-31T00:28:45.991Z,97.29
2023-03-31T00:29:45.951Z,97.60
2023-03-31T00:30:45.956Z,96.58
2023-03-31T00:31:45.942Z,96.53
2023-03-31T00:32:45.876Z,96.17
2023-03-31T00:33:45.788Z,96.27
2023-03-31T00:34:45.752Z,96.33
2023-03-31T00:35:45.773Z,96.47
2023-03-31T00:36:45.701Z,96.33
2023-03-31T00:37:45.634Z,96.73
2023-03-31T00:38:45.583Z,96.12
2023-03-31T00:39:45.565Z,96.43
2023-03-31T00:40:45.527Z,97.86
2023-03-31T00:41:45.487Z,97.24
2023-03-31T00:42:45.425Z,97.04
2023-03-31T00:43:45.386Z,97.34
2023-03-31T00:44:45.347Z,97.24
2023-03-31T00:45:45.310Z,97.75
2023-03-31T00:46:45.280Z,97.86
2023-03-31T00:47:45.339Z,98.27
2023-03-31T00:48:45.862Z,98.21
2023-03-31T00:49:45.163Z,98.82
2023-03-31T00:50:45.115Z,98.98
2023-03-31T00:51:45.067Z,99.84
2023-03-31T00:52:45.021Z,99.74
2023-03-31T00:53:45.025Z,99.99
2023-03-31T00:54:44.959Z,99.99
2023-03-31T00:55:44.918Z,99.99
2023-03-31T00:56:44.873Z,99.99
2023-03-31T00:57:44.824Z,99.99
2023-03-31T00:58:44.800Z,99.99
2023-03-31T00:59:44.762Z,99.99
2023-03-31T01:00:44.697Z,99.99
2023-03-31T01:01:44.740Z,99.99
2023-03-31T01:02:44.660Z,99.99
2023-03-31T01:03:44.699Z,99.99
2023-03-31T01:04:44.549Z,99.99
2023-03-31T01:05:44.533Z,99.99
2023-03-31T01:06:44.487Z,99.99
2023-03-31T01:07:44.497Z,99.99
2023-03-31T01:08:44.392Z,99.99
2023-03-31T01:09:44.359Z,99.99
2023-03-31T01:10:44.307Z,99.99
2023-03-31T01:11:44.272Z,99.99
2023-03-31T01:12:44.243Z,99.99
2023-03-31T01:13:44.206Z,99.99
2023-03-31T01:14:44.162Z,99.99
2023-03-31T01:15:44.115Z,99.99
2023-03-31T01:16:44.177Z,99.99
2023-03-31T01:17:44.136Z,99.99
2023-03-31T01:18:44.079Z,99.99
2023-03-31T01:19:43.965Z,99.99
2023-03-31T01:20:43.922Z,99.99
2023-03-31T01:21:43.885Z,99.99
2023-03-31T01:22:54.520Z,99.99
2023-03-31T01:23:43.774Z,99.99
2023-03-31T01:24:43.746Z,99.99
2023-03-31T01:25:43.725Z,99.99
2023-03-31T01:26:43.678Z,99.99
2023-03-31T01:27:43.638Z,99.99
2023-03-31T01:28:43.577Z,99.99
2023-03-31T01:29:43.544Z,99.99
2023-03-31T01:30:43.521Z,99.99
2023-03-31T01:31:43.642Z,99.99
2023-03-31T01:32:43.425Z,99.99
2023-03-31T01:33:43.372Z,99.99
2023-03-31T01:34:43.342Z,99.99
2023-03-31T01:35:43.405Z,99.99
2023-03-31T01:36:43.273Z,99.99
2023-03-31T01:37:43.271Z,99.99
2023-03-31T01:38:43.203Z,99.99
2023-03-31T01:39:43.179Z,99.99
2023-03-31T01:40:43.118Z,99.99
2023-03-31T01:41:43.099Z,99.99
2023-03-31T01:42:43.006Z,99.99
2023-03-31T01:43:43.011Z,99.99
2023-03-31T01:44:42.946Z,99.99
2023-03-31T01:45:42.904Z,99.99
2023-03-31T01:46:42.876Z,99.99
2023-03-31T01:47:42.853Z,99.99
2023-03-31T01:48:42.785Z,99.99
2023-03-31T01:49:42.751Z,99.99
2023-03-31T01:50:42.687Z,99.99
2023-03-31T01:51:42.702Z,99.99
2023-03-31T01:52:42.617Z,99.99
2023-03-31T01:53:42.582Z,99.99
2023-03-31T01:54:42.569Z,99.99
2023-03-31T01:55:42.491Z,99.99
2023-03-31T01:56:42.464Z,99.99
2023-03-31T01:57:42.426Z,99.99
2023-03-31T01:58:42.379Z,99.99
2023-03-31T01:59:42.340Z,99.99
2023-03-31T02:00:42.301Z,99.99
2023-03-31T02:01:42.269Z,99.99
2023-03-31T02:02:42.292Z,99.99
2023-03-31T02:03:43.048Z,99.99
2023-03-31T02:04:42.124Z,99.99
2023-03-31T02:05:42.112Z,99.99
2023-03-31T02:06:42.061Z,99.99
2023-03-31T02:07:41.995Z,99.99
2023-03-31T02:08:41.996Z,99.99
2023-03-31T02:09:41.926Z,99.99
2023-03-31T02:10:41.870Z,99.99
2023-03-31T02:11:41.864Z,99.99
2023-03-31T02:12:41.796Z,99.99
2023-03-31T02:13:41.820Z,99.99
2023-03-31T02:14:41.713Z,99.99
2023-03-31T02:15:41.695Z,99.99
2023-03-31T02:16:41.811Z,99.99
2023-03-31T02:17:41.656Z,99.99
2023-03-31T02:18:41.621Z,99.99
2023-03-31T02:19:41.521Z,99.99
2023-03-31T02:20:41.473Z,99.99
2023-03-31T02:21:41.440Z,99.99
2023-03-31T02:22:41.413Z,99.99
2023-03-31T02:23:41.373Z,99.99
2023-03-31T02:24:41.325Z,99.99
2023-03-31T02:25:41.307Z,99.99
2023-03-31T02:26:41.245Z,99.99
2023-03-31T02:27:41.204Z,99.99
2023-03-31T02:28:41.177Z,99.99
2023-03-31T02:29:41.117Z,99.99
2023-03-31T02:30:41.115Z,99.99
2023-03-31T02:31:41.075Z,99.99
2023-03-31T02:32:41.043Z,99.99
2023-03-31T02:33:41.507Z,99.99
2023-03-31T02:34:40.948Z,99.99
2023-03-31T02:35:40.980Z,99.99
2023-03-31T02:36:40.834Z,99.99
2023-03-31T02:37:40.809Z,99.99
2023-03-31T02:38:40.779Z,99.99
2023-03-31T02:39:40.744Z,99.99
2023-03-31T02:40:40.714Z,99.99
2023-03-31T02:41:40.674Z,99.99
2023-03-31T02:42:40.645Z,99.99
2023-03-31T02:43:40.555Z,99.99
2023-03-31T02:44:40.571Z,99.99
2023-03-31T02:45:40.557Z,99.99
2023-03-31T02:46:40.492Z,99.99
2023-03-31T02:47:40.493Z,99.99
2023-03-31T02:48:40.394Z,99.99
2023-03-31T02:49:40.393Z,99.99
2023-03-31T02:50:40.314Z,99.99
2023-03-31T02:51:40.246Z,99.99
2023-03-31T02:52:40.206Z,99.99
2023-03-31T02:53:40.143Z,99.99
2023-03-31T02:54:40.113Z,99.99
2023-03-31T02:55:40.064Z,99.99
2023-03-31T02:56:40.059Z,99.99
2023-03-31T02:57:40.038Z,99.99
2023-03-31T02:58:39.944Z,99.99
2023-03-31T02:59:39.902Z,99.99
2023-03-31T03:00:39.850Z,99.99
2023-03-31T03:01:39.920Z,99.99
2023-03-31T03:02:39.974Z,99.99
2023-03-31T03:03:39.785Z,99.99
2023-03-31T03:04:40.550Z,99.99
2023-03-31T03:05:41.161Z,99.99
2023-03-31T03:06:39.728Z,99.99
2023-03-31T03:07:40.614Z,99.99
2023-03-31T03:08:40.393Z,99.99
2023-03-31T03:09:39.599Z,99.99
2023-03-31T03:10:39.540Z,99.99
2023-03-31T03:11:39.511Z,99.99
2023-03-31T03:12:40.092Z,99.99
2023-03-31T03:13:39.533Z,99.99
2023-03-31T03:14:39.899Z,99.99
2023-03-31T03:15:39.320Z,99.99
2023-03-31T03:16:39.327Z,99.99
2023-03-31T03:17:39.222Z,99.99
2023-03-31T03:18:39.168Z,99.99
2023-03-31T03:19:39.105Z,99.99
2023-03-31T03:20:39.077Z,99.99
2023-03-31T03:21:39.083Z,99.99
2023-03-31T03:22:39.006Z,99.99
2023-03-31T03:23:38.971Z,99.99
2023-03-31T03:24:38.902Z,99.99
2023-03-31T03:25:38.860Z,99.99
2023-03-31T03:26:38.852Z,99.99
2023-03-31T03:27:38.792Z,99.99
2023-03-31T03:28:38.747Z,99.99
2023-03-31T03:29:38.700Z,99.99
2023-03-31T03:30:38.665Z,99.99
2023-03-31T03:31:38.653Z,99.99
2023-03-31T03:32:38.704Z,99.99
2023-03-31T03:33:38.573Z,99.99
2023-03-31T03:34:38.492Z,99.99
2023-03-31T03:35:38.600Z,99.99
2023-03-31T03:36:38.403Z,99.99
2023-03-31T03:37:38.390Z,99.99
2023-03-31T03:38:38.312Z,99.99
2023-03-31T03:39:38.282Z,99.99
2023-03-31T03:40:38.244Z,99.99
2023-03-31T03:41:38.198Z,99.99
2023-03-31T03:42:38.154Z,99.99
2023-03-31T03:43:38.156Z,99.99
2023-03-31T03:44:38.066Z,99.99
2023-03-31T03:45:38.031Z,99.99
2023-03-31T03:46:38.021Z,99.99
2023-03-31T03:47:38.004Z,99.99
2023-03-31T03:48:37.905Z,99.99
2023-03-31T03:49:37.890Z,99.99
2023-03-31T03:50:37.821Z,99.99
2023-03-31T03:51:37.777Z,99.99
2023-03-31T03:52:37.777Z,99.99
2023-03-31T03:53:37.694Z,99.99
2023-03-31T03:54:37.660Z,99.99
2023-03-31T03:55:37.624Z,99.99
2023-03-31T03:56:37.565Z,99.99
2023-03-31T03:57:37.566Z,99.99
2023-03-31T03:58:37.494Z,99.99
2023-03-31T03:59:37.467Z,99.99
2023-03-31T04:00:37.513Z,99.99
2023-03-31T04:01:37.442Z,99.99
2023-03-31T04:02:37.517Z,99.99
2023-03-31T04:03:37.303Z,99.99
2023-03-31T04:04:37.287Z,99.99
2023-03-31T04:05:37.206Z,99.99
2023-03-31T04:06:37.165Z,99.99
2023-03-31T04:07:37.141Z,99.99
2023-03-31T04:08:37.144Z,99.99
2023-03-31T04:09:37.092Z,99.99
2023-03-31T04:10:37.001Z,99.99
2023-03-31T04:11:36.986Z,99.99
2023-03-31T04:12:36.923Z,99.99
2023-03-31T04:13:36.916Z,99.99
2023-03-31T04:14:36.837Z,99.99
2023-03-31T04:15:36.811Z,99.99
2023-03-31T04:16:36.779Z,99.99
2023-03-31T04:17:36.777Z,99.99
2023-03-31T04:18:36.725Z,99.99
2023-03-31T04:19:36.644Z,99.99
2023-03-31T04:20:36.607Z,99.99
2023-03-31T04:21:36.605Z,99.99
2023-03-31T04:22:36.577Z,99.99
2023-03-31T04:23:36.481Z,99.99
2023-03-31T04:26:25.065Z,99.99
2023-03-31T04:33:58.518Z,99.99
2023-03-31T04:34:27.750Z,99.99
2023-03-31T04:35:27.699Z,99.99
2023-03-31T04:36:27.619Z,99.99
2023-03-31T04:37:27.595Z,99.99
2023-03-31T04:38:27.577Z,99.99
2023-03-31T04:39:27.512Z,99.99
2023-03-31T04:40:27.468Z,99.99
2023-03-31T04:41:27.477Z,99.99
2023-03-31T04:42:28.225Z,99.99
2023-03-31T04:43:27.546Z,99.99
2023-03-31T04:44:27.514Z,99.99
2023-03-31T04:45:27.350Z,99.99
2023-03-31T04:46:27.305Z,99.99
2023-03-31T04:47:27.259Z,99.99
2023-03-31T04:48:27.194Z,99.99
2023-03-31T04:49:27.159Z,99.99
2023-03-31T04:50:27.870Z,99.99
2023-03-31T04:51:27.853Z,99.99
2023-03-31T04:52:30.085Z,99.99
2023-03-31T04:53:27.002Z,99.99
2023-03-31T04:54:30.268Z,99.99
2023-03-31T04:55:26.884Z,99.99
2023-03-31T04:56:26.921Z,99.99
2023-03-31T04:57:27.409Z,99.99
2023-03-31T04:58:26.859Z,99.99
2023-03-31T04:59:26.793Z,99.99
2023-03-31T05:00:26.635Z,99.99
2023-03-31T05:01:26.679Z,99.99
2023-03-31T05:02:27.280Z,99.99
2023-03-31T05:03:26.694Z,99.99
2023-03-31T05:04:26.578Z,99.99
2023-03-31T05:05:26.475Z,99.99
2023-03-31T05:06:27.232Z,99.99
2023-03-31T05:07:26.470Z,99.99
2023-03-31T05:08:27.234Z,99.99
2023-03-31T05:09:26.293Z,99.99
2023-03-31T05:10:26.737Z,99.99
2023-03-31T05:11:26.205Z,99.99
2023-03-31T05:12:26.179Z,99.99
2023-03-31T05:13:26.080Z,99.99
2023-03-31T05:14:26.090Z,99.99
2023-03-31T05:15:26.070Z,99.99
2023-03-31T05:16:25.984Z,99.99
2023-03-31T05:17:25.931Z,99.99
2023-03-31T05:18:25.900Z,99.99
2023-03-31T05:19:25.861Z,99.99
2023-03-31T05:20:25.812Z,99.99
2023-03-31T05:21:25.791Z,99.99
2023-03-31T05:22:25.734Z,99.99
2023-03-31T05:23:25.724Z,99.99
2023-03-31T05:24:25.658Z,99.99
2023-03-31T05:25:25.609Z,99.99
2023-03-31T05:26:25.617Z,99.99
2023-03-31T05:27:25.540Z,99.99
2023-03-31T05:28:25.480Z,99.99
2023-03-31T05:29:25.458Z,99.99
2023-03-31T05:30:25.403Z,99.99
2023-03-31T05:31:25.380Z,99.99
2023-03-31T05:32:25.369Z,99.99
2023-03-31T05:33:25.304Z,99.99
2023-03-31T05:34:25.258Z,99.99
2023-03-31T05:35:25.202Z,99.99
2023-03-31T05:36:25.205Z,99.99
2023-03-31T05:37:25.139Z,99.99
2023-03-31T05:38:25.082Z,99.99
2023-03-31T05:39:25.044Z,99.99
2023-03-31T05:40:25.026Z,99.99
2023-03-31T05:41:24.949Z,99.99
2023-03-31T05:42:24.930Z,99.99
2023-03-31T05:43:24.852Z,99.99
2023-03-31T05:44:24.827Z,99.99
2023-03-31T05:45:24.816Z,99.99
2023-03-31T05:46:24.781Z,99.99
2023-03-31T05:47:24.772Z,99.99
2023-03-31T05:48:24.657Z,99.99
2023-03-31T05:49:24.619Z,99.99
2023-03-31T05:50:24.621Z,99.99
2023-03-31T05:51:24.562Z,99.99
2023-03-31T05:52:24.519Z,99.99
2023-03-31T05:53:24.456Z,99.99
2023-03-31T05:54:24.435Z,99.99
2023-03-31T05:55:24.370Z,99.99
2023-03-31T05:56:24.349Z,99.99
2023-03-31T05:57:24.370Z,99.99
2023-03-31T05:58:24.301Z,99.99
2023-03-31T05:59:24.279Z,99.99
2023-03-31T06:00:24.200Z,99.99
2023-03-31T06:01:24.165Z,99.99
2023-03-31T06:02:24.130Z,99.99
2023-03-31T06:03:24.112Z,99.99
2023-03-31T06:04:24.071Z,99.99
2023-03-31T06:05:23.965Z,99.99
2023-03-31T06:06:23.946Z,99.99
2023-03-31T06:07:23.934Z,99.99
2023-03-31T06:08:23.883Z,99.99
2023-03-31T06:09:23.799Z,99.99
2023-03-31T06:10:23.799Z,99.99
2023-03-31T06:11:23.782Z,99.99
2023-03-31T06:12:23.892Z,99.99
2023-03-31T06:13:23.676Z,99.99
2023-03-31T06:16:02.845Z,99.99
2023-03-31T06:17:02.718Z,99.99
2023-03-31T06:18:02.704Z,99.99
2023-03-31T06:19:02.620Z,99.99
2023-03-31T06:20:07.748Z,99.99
2023-03-31T06:21:02.532Z,99.99
2023-03-31T06:22:02.482Z,99.99
2023-03-31T06:23:02.446Z,99.99
2023-03-31T06:24:02.404Z,99.99
2023-03-31T06:25:02.368Z,99.99
2023-03-31T06:26:02.328Z,99.99
2023-03-31T06:27:02.269Z,99.99
2023-03-31T06:28:02.238Z,99.99
2023-03-31T06:29:02.205Z,99.99
2023-03-31T06:30:02.166Z,99.99
2023-03-31T06:31:02.144Z,99.99
2023-03-31T06:32:02.117Z,99.99
2023-03-31T06:33:02.088Z,99.99
2023-03-31T06:34:01.997Z,99.99
2023-03-31T06:35:01.988Z,99.99
2023-03-31T06:36:02.043Z,99.99
2023-03-31T06:37:04.039Z,99.99
2023-03-31T06:38:01.865Z,99.99
2023-03-31T06:39:01.798Z,99.99
2023-03-31T06:40:01.774Z,99.99
2023-03-31T06:41:01.754Z,99.99
2023-03-31T06:42:01.687Z,99.99
2023-03-31T06:43:01.679Z,99.99
2023-03-31T06:44:01.662Z,99.99
2023-03-31T06:45:01.536Z,99.99
2023-03-31T06:46:01.611Z,99.99
2023-03-31T06:47:01.485Z,99.99
2023-03-31T06:48:01.499Z,99.99
2023-03-31T06:49:01.431Z,99.99
2023-03-31T06:50:01.382Z,99.99
2023-03-31T06:51:01.295Z,99.99
2023-03-31T06:52:01.269Z,99.99
2023-03-31T06:53:01.235Z,99.99
2023-03-31T06:54:01.261Z,99.99
2023-03-31T06:55:01.350Z,99.99
2023-03-31T06:56:01.150Z,99.99
2023-03-31T06:57:01.114Z,99.99
2023-03-31T06:58:01.076Z,99.99
2023-03-31T06:59:00.992Z,99.99
2023-03-31T07:00:00.980Z,99.99
2023-03-31T07:01:01.854Z,99.99
2023-03-31T07:14:37.762Z,99.99
2023-03-31T07:16:41.863Z,99.99
2023-03-31T07:17:34.774Z,99.99
2023-03-31T07:18:41.464Z,99.99
2023-03-31T07:19:34.610Z,99.99
2023-03-31T07:20:34.592Z,99.99
2023-03-31T07:21:34.570Z,99.99
2023-03-31T07:22:34.492Z,99.99
2023-03-31T07:23:45.049Z,99.99
2023-03-31T07:24:37.044Z,99.99
2023-03-31T07:26:37.116Z,99.99
2023-03-31T07:27:48.322Z,99.99
2023-03-31T07:28:50.826Z,99.99
2023-03-31T07:29:42.366Z,99.99
2023-03-31T07:30:52.736Z,99.99
2023-03-31T07:31:51.712Z,99.99
2023-03-31T07:32:35.986Z,99.99
2023-03-31T07:33:41.292Z,99.99
2023-03-31T07:34:38.814Z,99.99
2023-03-31T07:35:37.385Z,99.99
2023-03-31T07:36:39.873Z,99.99
2023-03-31T07:38:35.528Z,99.99
2023-03-31T07:39:43.840Z,99.99
2023-03-31T07:43:13.298Z,99.99
2023-03-31T07:44:08.550Z,99.99
2023-03-31T07:45:07.578Z,99.99
2023-03-31T07:46:30.402Z,99.99
2023-03-31T07:47:08.514Z,99.99
2023-03-31T07:48:06.856Z,99.99
2023-03-31T07:49:08.489Z,99.99
2023-03-31T07:50:08.315Z,99.99
2023-03-31T07:51:08.298Z,99.99
2023-03-31T07:52:08.655Z,99.99
2023-03-31T07:53:07.864Z,99.99
2023-03-31T07:54:06.617Z,99.99
2023-03-31T07:55:07.254Z,99.99
2023-03-31T07:56:07.984Z,99.99
2023-03-31T07:57:08.155Z,99.99
2023-03-31T07:58:17.309Z,99.99
2023-03-31T07:59:08.388Z,99.99
2023-03-31T08:00:13.345Z,99.99
2023-03-31T08:01:12.301Z,99.99
2023-03-31T08:02:07.355Z,99.99
2023-03-31T08:03:06.994Z,99.99
2023-03-31T08:04:06.916Z,99.99
2023-03-31T08:05:06.896Z,99.99
2023-03-31T08:06:07.040Z,99.99
2023-03-31T08:07:07.061Z,99.99
2023-03-31T08:08:07.036Z,99.99
2023-03-31T08:09:06.727Z,99.99
2023-03-31T08:10:05.795Z,99.99
2023-03-31T08:11:06.755Z,99.99
2023-03-31T08:12:06.562Z,99.99
2023-03-31T08:13:06.387Z,99.99
2023-03-31T08:14:06.635Z,99.75
2023-03-31T08:15:15.822Z,99.44
2023-03-31T08:16:06.508Z,99.04
2023-03-31T08:17:06.368Z,98.83
2023-03-31T08:18:06.276Z,99.04
2023-03-31T08:19:06.030Z,99.99
2023-03-31T08:20:07.807Z,99.99
2023-03-31T08:21:05.525Z,99.99
2023-03-31T08:22:06.377Z,99.99
2023-03-31T08:23:06.058Z,99.99
2023-03-31T08:24:05.955Z,99.99
2023-03-31T08:25:06.068Z,99.99
2023-03-31T08:26:06.192Z,99.99
2023-03-31T08:28:05.868Z,99.99
2023-03-31T08:29:05.681Z,99.99
2023-03-31T08:30:04.943Z,99.99
2023-03-31T08:31:04.916Z,99.99
2023-03-31T08:32:04.914Z,99.99
2023-03-31T08:33:05.734Z,99.99
2023-03-31T08:34:05.583Z,99.99
2023-03-31T08:35:05.520Z,99.99
2023-03-31T08:36:05.903Z,99.99
2023-03-31T08:37:05.862Z,99.99
2023-03-31T08:38:05.599Z,99.99
2023-03-31T08:39:05.496Z,99.99
2023-03-31T08:40:05.377Z,99.99
2023-03-31T08:41:05.300Z,99.99
2023-03-31T08:42:05.354Z,99.99
2023-03-31T08:43:05.475Z,99.99
2023-03-31T08:44:05.163Z,99.99
2023-03-31T08:45:05.186Z,99.99
2023-03-31T08:46:05.365Z,99.99
2023-03-31T08:47:05.162Z,99.99
2023-03-31T08:48:06.680Z,99.99
2023-03-31T08:49:05.033Z,99.99
2023-03-31T08:50:05.038Z,99.99
2023-03-31T08:51:05.082Z,99.99
2023-03-31T08:52:04.844Z,99.99
2023-03-31T08:53:04.917Z,99.99
2023-03-31T08:54:04.855Z,99.99
2023-03-31T08:55:04.684Z,99.99
2023-03-31T08:56:05.020Z,99.99
2023-03-31T08:57:04.688Z,99.99
2023-03-31T08:58:04.739Z,99.99
2023-03-31T08:59:04.656Z,99.99
2023-03-31T09:00:04.606Z,99.99
2023-03-31T09:01:03.764Z,99.99
2023-03-31T09:02:04.469Z,99.99
2023-03-31T09:03:06.590Z,99.88
2023-03-31T09:04:06.180Z,98.70
2023-03-31T09:05:04.600Z,98.75
2023-03-31T09:06:04.442Z,98.14
2023-03-31T09:07:04.389Z,98.71
2023-03-31T09:08:04.224Z,97.60
2023-03-31T09:09:04.284Z,97.24
2023-03-31T09:10:04.212Z,96.99
2023-03-31T09:11:04.140Z,96.48
2023-03-31T09:12:04.111Z,95.17
2023-03-31T09:13:04.086Z,97.09
2023-03-31T09:14:04.042Z,96.34
2023-03-31T09:15:03.985Z,96.84
2023-03-31T09:16:04.110Z,95.42
2023-03-31T09:17:03.978Z,95.83
2023-03-31T09:18:04.021Z,94.96
2023-03-31T09:19:02.955Z,95.41
2023-03-31T09:20:03.632Z,96.23
2023-03-31T09:21:03.962Z,95.72
2023-03-31T09:22:03.816Z,97.44
2023-03-31T09:23:03.808Z,96.78
2023-03-31T09:24:03.716Z,97.49
2023-03-31T09:25:03.672Z,98.61
2023-03-31T09:26:03.573Z,99.11
2023-03-31T09:27:03.563Z,98.71
2023-03-31T09:28:03.567Z,96.78
2023-03-31T09:29:03.515Z,95.56
2023-03-31T09:30:03.291Z,95.05
2023-03-31T09:31:02.495Z,93.22
2023-03-31T09:32:02.472Z,94.13
2023-03-31T09:33:02.419Z,93.68
2023-03-31T09:34:02.349Z,91.86
2023-03-31T09:35:02.320Z,92.61
2023-03-31T09:36:02.322Z,92.06
2023-03-31T09:37:02.238Z,92.26
2023-03-31T09:38:02.247Z,92.67
2023-03-31T09:39:02.173Z,91.14
2023-03-31T09:40:02.265Z,91.65
2023-03-31T09:41:02.085Z,90.19
2023-03-31T09:42:02.045Z,90.49
2023-03-31T09:43:02.041Z,90.14
2023-03-31T09:44:01.972Z,88.73
2023-03-31T09:45:01.945Z,89.70
2023-03-31T09:46:09.712Z,89.09
2023-03-31T09:47:01.867Z,88.75
2023-03-31T09:48:01.905Z,87.38
2023-03-31T09:49:01.778Z,87.89
2023-03-31T09:50:01.752Z,86.43
2023-03-31T09:51:01.761Z,85.31
2023-03-31T09:52:01.703Z,84.56
2023-03-31T09:53:01.657Z,83.96
2023-03-31T09:54:01.597Z,85.03
2023-03-31T09:55:01.547Z,83.86
2023-03-31T09:56:01.519Z,85.48
2023-03-31T09:57:01.586Z,84.91
2023-03-31T09:58:01.445Z,83.90
2023-03-31T09:59:01.415Z,84.70
2023-03-31T10:00:01.372Z,85.25
2023-03-31T10:01:01.381Z,86.82
2023-03-31T10:02:01.386Z,89.65
2023-03-31T10:03:01.349Z,89.64
2023-03-31T10:04:01.261Z,90.70
2023-03-31T10:05:07.931Z,91.25
2023-03-31T10:06:01.141Z,91.80
2023-03-31T10:07:01.938Z,92.25
2023-03-31T10:08:01.177Z,93.45
2023-03-31T10:09:01.038Z,94.78
2023-03-31T10:10:03.352Z,93.60
2023-03-31T10:11:10.041Z,94.31
2023-03-31T10:12:03.351Z,93.80
2023-03-31T10:13:00.876Z,94.42
2023-03-31T10:14:00.841Z,95.18
2023-03-31T10:15:00.806Z,94.12
2023-03-31T10:16:00.804Z,94.18
2023-03-31T10:17:00.745Z,93.32
2023-03-31T10:18:00.694Z,93.07
2023-03-31T10:19:00.651Z,90.70
2023-03-31T10:20:00.606Z,90.90
2023-03-31T10:21:00.573Z,90.96
2023-03-31T10:22:00.547Z,88.16
2023-03-31T10:23:00.490Z,89.54
2023-03-31T10:24:00.483Z,90.05
2023-03-31T10:25:00.422Z,89.39
2023-03-31T10:26:00.386Z,89.96
2023-03-31T10:27:00.348Z,89.90
2023-03-31T10:28:00.316Z,88.75
2023-03-31T10:29:00.269Z,88.18
2023-03-31T10:30:00.293Z,86.91
2023-03-31T10:31:00.217Z,87.73
2023-03-31T10:32:00.265Z,86.71
2023-03-31T10:33:08.462Z,88.03
2023-03-31T10:34:00.128Z,86.68
2023-03-31T10:35:00.037Z,87.45
2023-03-31T10:36:00.047Z,85.62
2023-03-31T10:36:59.960Z,85.99
2023-03-31T10:37:59.946Z,85.24
2023-03-31T10:38:59.898Z,83.72
2023-03-31T10:39:59.857Z,84.79
2023-03-31T10:40:59.935Z,84.81
2023-03-31T10:41:59.792Z,83.42
2023-03-31T10:42:59.750Z,81.90
2023-03-31T10:43:59.718Z,80.99
2023-03-31T10:44:59.663Z,80.65
2023-03-31T10:45:59.627Z,81.02
2023-03-31T10:46:59.624Z,80.35
2023-03-31T10:47:59.626Z,81.26
2023-03-31T10:48:59.545Z,79.48
2023-03-31T10:49:59.497Z,80.39
2023-03-31T10:50:59.454Z,79.72
2023-03-31T10:51:59.425Z,80.32
2023-03-31T10:52:59.484Z,81.07
2023-03-31T10:53:59.346Z,82.99
2023-03-31T10:54:59.333Z,80.24
2023-03-31T10:55:59.276Z,82.20
2023-03-31T10:56:59.262Z,82.54
2023-03-31T10:57:59.210Z,84.30
2023-03-31T10:59:05.982Z,87.73
2023-03-31T10:59:59.140Z,88.50
2023-03-31T11:00:59.119Z,91.84
2023-03-31T11:02:00.485Z,92.89
2023-03-31T11:02:59.159Z,95.68
2023-03-31T11:03:59.123Z,96.34
2023-03-31T11:04:58.949Z,97.00
2023-03-31T11:05:58.920Z,98.22
2023-03-31T11:06:58.893Z,99.34
2023-03-31T11:07:58.853Z,99.29
2023-03-31T11:08:58.796Z,99.59
2023-03-31T11:09:58.761Z,99.90
2023-03-31T11:10:58.825Z,99.99
2023-03-31T11:11:58.684Z,99.99
2023-03-31T11:12:58.660Z,99.99
2023-03-31T11:13:58.617Z,99.99
2023-03-31T11:14:58.580Z,99.65
2023-03-31T11:15:58.563Z,99.99
2023-03-31T11:16:58.565Z,99.99
2023-03-31T11:17:58.502Z,98.58
2023-03-31T11:18:58.439Z,98.89
2023-03-31T11:19:58.387Z,98.02
2023-03-31T11:20:58.337Z,97.31
2023-03-31T11:21:58.290Z,97.98
2023-03-31T11:22:58.283Z,96.86
2023-03-31T11:23:58.225Z,96.15
2023-03-31T11:24:58.180Z,96.15
2023-03-31T11:25:58.134Z,95.74
2023-03-31T11:26:58.108Z,94.47
2023-03-31T11:27:58.056Z,93.96
2023-03-31T11:28:58.040Z,93.96
2023-03-31T11:29:57.987Z,94.78
2023-03-31T11:30:57.950Z,93.66
2023-03-31T11:31:57.930Z,91.72
2023-03-31T11:32:57.948Z,92.29
2023-03-31T11:33:57.835Z,92.80
2023-03-31T11:34:57.789Z,93.77
2023-03-31T11:35:57.799Z,94.08
2023-03-31T11:36:57.712Z,93.16
2023-03-31T11:37:57.668Z,93.32
2023-03-31T11:38:57.639Z,90.68
2023-03-31T11:39:57.601Z,92.10
2023-03-31T11:40:57.564Z,92.57
2023-03-31T11:41:57.526Z,91.65
2023-03-31T11:42:57.517Z,91.45
2023-03-31T11:43:57.445Z,91.05
2023-03-31T11:44:57.432Z,92.87
2023-03-31T11:45:57.448Z,90.03
2023-03-31T11:46:57.337Z,89.31
2023-03-31T11:47:57.317Z,89.92
2023-03-31T11:48:57.269Z,90.23
2023-03-31T11:49:57.203Z,89.72
2023-03-31T11:50:57.171Z,89.62
2023-03-31T11:51:57.161Z,90.03
2023-03-31T11:52:57.111Z,89.83
2023-03-31T11:53:57.058Z,89.31
2023-03-31T11:54:57.020Z,88.20
2023-03-31T11:55:56.991Z,89.22
2023-03-31T11:56:56.979Z,89.52
2023-03-31T11:57:56.906Z,88.50
2023-03-31T11:58:56.878Z,88.76
2023-03-31T11:59:56.827Z,88.56
2023-03-31T12:00:56.799Z,88.30
2023-03-31T12:01:56.763Z,88.26
2023-03-31T12:02:56.793Z,87.24
2023-03-31T12:03:56.704Z,87.14
2023-03-31T12:04:56.650Z,87.71
2023-03-31T12:05:56.634Z,86.29
2023-03-31T12:06:56.559Z,86.39
2023-03-31T12:07:56.539Z,84.66
2023-03-31T12:08:56.491Z,86.08
2023-03-31T12:09:56.471Z,85.84
2023-03-31T12:10:56.451Z,86.15
2023-03-31T12:11:56.375Z,85.38
2023-03-31T12:12:56.365Z,85.33
2023-03-31T12:13:56.346Z,86.55
2023-03-31T12:14:56.263Z,86.25
2023-03-31T12:15:56.286Z,84.52
2023-03-31T12:16:56.200Z,84.01
2023-03-31T12:17:56.203Z,84.93
2023-03-31T12:18:56.118Z,85.27
2023-03-31T12:19:56.084Z,86.94
2023-03-31T12:20:56.048Z,86.33
2023-03-31T12:21:55.992Z,85.72
2023-03-31T12:22:55.959Z,87.65
2023-03-31T12:23:55.918Z,87.85
2023-03-31T12:24:55.886Z,87.79
2023-03-31T12:25:55.869Z,89.62
2023-03-31T12:26:55.810Z,88.91
2023-03-31T12:27:55.768Z,88.85
2023-03-31T12:28:55.764Z,90.68
2023-03-31T12:29:55.703Z,92.10
2023-03-31T12:30:55.656Z,91.74
2023-03-31T12:31:55.697Z,93.01
2023-03-31T12:32:55.674Z,94.23
2023-03-31T12:33:55.563Z,94.27
2023-03-31T12:34:55.507Z,95.04
2023-03-31T12:35:55.504Z,95.18
2023-03-31T12:36:55.706Z,95.04
2023-03-31T12:37:55.415Z,95.95
2023-03-31T12:38:55.365Z,95.85
2023-03-31T12:39:55.318Z,95.04
2023-03-31T12:40:55.267Z,95.20
2023-03-31T12:41:55.238Z,95.50
2023-03-31T12:42:55.194Z,95.46
2023-03-31T12:43:55.178Z,95.10
2023-03-31T12:44:55.148Z,94.70
2023-03-31T12:45:55.101Z,93.18
2023-03-31T12:46:55.983Z,92.83
2023-03-31T12:47:55.029Z,92.63
2023-03-31T12:48:55.486Z,90.05
2023-03-31T12:49:54.930Z,90.35
2023-03-31T12:50:54.906Z,90.14
2023-03-31T12:51:54.846Z,91.56
2023-03-31T12:52:54.828Z,88.42
2023-03-31T12:53:54.777Z,88.68
2023-03-31T12:54:54.738Z,90.06
2023-03-31T12:55:54.688Z,88.34
2023-03-31T12:56:54.751Z,87.32
2023-03-31T12:57:55.487Z,87.83
2023-03-31T12:58:54.608Z,87.22
2023-03-31T12:59:54.567Z,86.82
2023-03-31T13:00:54.552Z,85.76
2023-03-31T13:01:54.497Z,85.70
2023-03-31T13:02:54.604Z,86.31
2023-03-31T13:03:54.595Z,86.10
2023-03-31T13:04:54.369Z,86.15
2023-03-31T13:05:54.330Z,86.45
2023-03-31T13:06:54.273Z,87.26
2023-03-31T13:07:54.236Z,87.20
2023-03-31T13:08:54.196Z,87.40
2023-03-31T13:09:54.164Z,88.12
2023-03-31T13:10:54.143Z,87.10
2023-03-31T13:11:54.100Z,87.46
2023-03-31T13:12:54.066Z,85.33
2023-03-31T13:14:00.322Z,85.53
2023-03-31T13:14:53.976Z,84.52
2023-03-31T13:15:53.926Z,83.77
2023-03-31T13:17:53.886Z,81.64
2023-03-31T13:18:53.817Z,81.13
2023-03-31T13:19:53.794Z,78.77
2023-03-31T13:20:53.743Z,79.98
2023-03-31T13:21:53.724Z,79.38